createdAt,value
2022-08-11T00:20:58.786Z,1
2022-08-11T00:22:04.038Z,1
2022-08-11T00:22:59.789Z,1
2022-08-11T00:23:58.759Z,1
2022-08-11T00:25:02.339Z,1
2022-08-11T00:25:58.734Z,1
2022-08-11T00:26:58.726Z,1
2022-08-11T00:27:58.718Z,2
2022-08-11T00:28:58.705Z,2
2022-08-11T00:29:58.698Z,2
2022-08-11T00:30:58.690Z,2
2022-08-11T00:31:58.679Z,1
2022-08-11T00:32:58.668Z,2
2022-08-11T00:33:58.658Z,2
2022-08-11T00:35:52.087Z,2
2022-08-11T00:35:59.654Z,2
2022-08-11T00:36:58.625Z,2
2022-08-11T00:37:58.613Z,2
2022-08-11T00:38:58.603Z,2
2022-08-11T00:39:58.661Z,2
2022-08-11T00:40:58.585Z,2
2022-08-11T00:41:58.576Z,2
2022-08-11T00:42:58.563Z,2
2022-08-11T00:43:58.555Z,2
2022-08-11T00:44:58.543Z,2
2022-08-11T00:45:58.532Z,2
2022-08-11T00:46:58.525Z,2
2022-08-11T00:48:00.288Z,2
2022-08-11T00:48:58.500Z,2
2022-08-11T00:49:58.489Z,2
2022-08-11T00:50:58.479Z,2
2022-08-11T00:52:05.825Z,2
2022-08-11T00:52:59.480Z,2
2022-08-11T00:53:58.448Z,2
2022-08-11T00:54:58.441Z,1
2022-08-11T00:55:58.426Z,1
2022-08-11T00:56:58.418Z,1
2022-08-11T00:57:58.406Z,1
2022-08-11T00:58:58.395Z,1
2022-08-11T00:59:58.384Z,1
2022-08-11T01:00:58.444Z,1
2022-08-11T01:01:58.366Z,1
2022-08-11T01:02:58.351Z,1
2022-08-11T01:03:58.343Z,1
2022-08-11T01:04:58.333Z,1
2022-08-11T01:05:58.323Z,1
2022-08-11T01:06:58.309Z,1
2022-08-11T01:08:01.868Z,1
2022-08-11T01:08:58.289Z,1
2022-08-11T01:09:58.329Z,2
2022-08-11T01:10:58.273Z,2
2022-08-11T01:11:58.258Z,2
2022-08-11T01:12:58.249Z,2
2022-08-11T01:13:58.238Z,2
2022-08-11T01:14:58.230Z,2
2022-08-11T01:15:58.227Z,2
2022-08-11T01:16:58.210Z,2
2022-08-11T01:17:58.204Z,2
2022-08-11T01:18:58.193Z,2
2022-08-11T01:20:38.592Z,1
2022-08-11T01:20:59.191Z,1
2022-08-11T01:21:58.161Z,1
2022-08-11T01:22:58.152Z,1
2022-08-11T01:23:58.160Z,1
2022-08-11T01:24:58.132Z,1
2022-08-11T01:25:58.122Z,1
2022-08-11T01:26:58.118Z,1
2022-08-11T01:27:58.103Z,1
2022-08-11T01:28:58.094Z,1
2022-08-11T01:29:58.080Z,1
2022-08-11T01:30:58.069Z,1
2022-08-11T01:31:58.061Z,1
2022-08-11T01:32:58.049Z,1
2022-08-11T01:33:58.042Z,1
2022-08-11T01:34:58.029Z,1
2022-08-11T01:35:58.019Z,1
2022-08-11T01:36:58.012Z,1
2022-08-11T01:37:58.002Z,1
2022-08-11T01:38:57.989Z,1
2022-08-11T01:39:58.032Z,1
2022-08-11T01:40:57.968Z,1
2022-08-11T01:41:57.959Z,1
2022-08-11T01:42:57.946Z,1
2022-08-11T01:43:57.936Z,1
2022-08-11T01:44:57.929Z,1
2022-08-11T01:45:57.921Z,1
2022-08-11T01:46:57.909Z,1
2022-08-11T01:47:57.898Z,1
2022-08-11T01:48:57.885Z,1
2022-08-11T01:50:09.831Z,1
2022-08-11T01:50:58.891Z,1
2022-08-11T01:51:57.861Z,1
2022-08-11T01:52:57.848Z,1
2022-08-11T01:53:57.835Z,1
2022-08-11T01:54:57.825Z,1
2022-08-11T01:55:57.818Z,1
2022-08-11T01:56:57.808Z,1
2022-08-11T01:57:57.794Z,1
2022-08-11T01:58:57.787Z,1
2022-08-11T01:59:57.775Z,1
2022-08-11T02:00:57.850Z,1
2022-08-11T02:01:57.758Z,1
2022-08-11T02:02:57.746Z,1
2022-08-11T02:03:57.737Z,1
2022-08-11T02:04:57.724Z,1
2022-08-11T02:05:57.719Z,1
2022-08-11T02:06:57.708Z,1
2022-08-11T02:07:57.694Z,1
2022-08-11T02:08:57.693Z,1
2022-08-11T02:09:57.674Z,1
2022-08-11T02:10:57.673Z,1
2022-08-11T02:11:57.655Z,1
2022-08-11T02:12:57.644Z,1
2022-08-11T02:13:57.636Z,1
2022-08-11T02:15:04.799Z,1
2022-08-11T02:15:58.636Z,1
2022-08-11T02:16:57.605Z,1
2022-08-11T02:17:57.597Z,1
2022-08-11T02:18:57.587Z,1
2022-08-11T02:19:57.577Z,1
2022-08-11T02:21:57.559Z,1
2022-08-11T02:22:57.545Z,1
2022-08-11T02:23:59.507Z,1
2022-08-11T02:24:58.548Z,1
2022-08-11T02:25:57.512Z,1
2022-08-11T02:26:57.505Z,1
2022-08-11T02:27:57.492Z,1
2022-08-11T02:28:57.484Z,1
2022-08-11T02:29:57.470Z,1
2022-08-11T02:30:57.464Z,1
2022-08-11T02:32:15.512Z,1
2022-08-11T02:32:58.464Z,1
2022-08-11T02:33:57.431Z,1
2022-08-11T02:34:59.768Z,1
2022-08-11T02:35:57.413Z,1
2022-08-11T02:36:57.409Z,1
2022-08-11T02:37:57.393Z,1
2022-08-11T02:38:57.382Z,1
2022-08-11T02:39:57.372Z,1
2022-08-11T02:40:57.363Z,1
2022-08-11T02:41:57.352Z,1
2022-08-11T02:42:57.343Z,1
2022-08-11T02:43:57.330Z,1
2022-08-11T02:44:57.323Z,1
2022-08-11T02:45:57.312Z,1
2022-08-11T02:46:57.299Z,1
2022-08-11T02:47:57.294Z,1
2022-08-11T02:48:57.280Z,1
2022-08-11T02:50:06.348Z,1
2022-08-11T02:50:58.280Z,1
2022-08-11T02:51:57.249Z,1
2022-08-11T02:52:57.240Z,1
2022-08-11T02:53:58.282Z,1
2022-08-11T02:56:57.197Z,1
2022-08-11T03:40:56.756Z,7.
2022-08-11T03:42:03.673Z,6.
2022-08-11T03:42:57.760Z,6.
2022-08-11T03:43:58.246Z,6.
2022-08-11T03:49:56.667Z,6.
2022-08-11T03:50:56.662Z,6.
2022-08-11T03:53:56.629Z,7.
2022-08-11T03:55:56.606Z,7.
2022-08-11T03:56:56.599Z,6.
2022-08-11T03:57:56.588Z,5.
2022-08-11T03:58:56.576Z,6.
2022-08-11T03:59:56.568Z,5.
2022-08-11T04:00:56.559Z,5.
2022-08-11T04:01:56.606Z,5.
2022-08-11T04:02:56.537Z,5.
2022-08-11T04:03:56.532Z,5.
2022-08-11T04:04:56.522Z,5.
2022-08-11T04:05:56.511Z,5.
2022-08-11T04:06:56.500Z,5.
2022-08-11T04:07:56.489Z,5.
2022-08-11T04:08:56.481Z,5.
2022-08-11T04:09:56.472Z,5.
2022-08-11T04:10:57.469Z,5.
2022-08-11T04:11:56.449Z,5.
2022-08-11T04:12:56.439Z,5.
2022-08-11T04:13:56.434Z,5.
2022-08-11T04:14:56.421Z,4.
2022-08-11T04:15:56.413Z,5.
2022-08-11T04:16:56.405Z,4.
2022-08-11T04:17:56.389Z,5.
2022-08-11T04:18:56.381Z,5.
2022-08-11T04:19:56.370Z,4.
2022-08-11T04:20:56.362Z,5.
2022-08-11T04:21:56.353Z,5.
2022-08-11T04:22:56.344Z,4.
2022-08-11T04:24:33.097Z,5.
2022-08-11T04:24:57.348Z,4.
2022-08-11T04:25:58.522Z,4.
2022-08-11T04:26:56.316Z,5.
2022-08-11T04:27:56.295Z,5.
2022-08-11T04:28:56.285Z,5.
2022-08-11T04:30:03.879Z,5.
2022-08-11T04:30:57.286Z,5.
2022-08-11T04:31:56.260Z,5.
2022-08-11T04:32:56.242Z,4.
2022-08-11T04:33:56.608Z,4.
2022-08-11T04:34:56.224Z,4.
2022-08-11T04:35:56.212Z,4.
2022-08-11T04:36:56.204Z,4.
2022-08-11T04:37:56.194Z,4.
2022-08-11T04:38:56.183Z,3.
2022-08-11T04:39:56.176Z,4.50
2022-08-11T04:40:56.164Z,4.30
2022-08-11T04:41:56.153Z,4.19
2022-08-11T04:42:56.143Z,4.30
2022-08-11T04:44:02.129Z,4.30
2022-08-11T04:44:57.148Z,4.69
2022-08-11T04:45:56.115Z,4.30
2022-08-11T04:46:56.102Z,4.00
2022-08-11T04:48:03.665Z,4.19
2022-08-11T04:48:57.112Z,4.59
2022-08-11T04:49:56.076Z,3.90
2022-08-11T04:51:00.698Z,4.19
2022-08-11T04:51:57.074Z,4.19
2022-08-11T04:52:56.040Z,4.30
2022-08-11T04:53:56.030Z,4.00
2022-08-11T04:54:56.021Z,4.09
2022-08-11T04:55:56.008Z,3.79
2022-08-11T04:56:56.001Z,3.59
2022-08-11T04:57:55.990Z,3.70
2022-08-11T04:58:55.980Z,3.79
2022-08-11T04:59:55.969Z,3.90
2022-08-11T05:00:56.658Z,3.70
2022-08-11T05:01:56.012Z,3.70
2022-08-11T05:02:55.938Z,4.50
2022-08-11T05:03:55.928Z,4.00
2022-08-11T05:04:55.917Z,3.79
2022-08-11T05:05:56.961Z,5.59
2022-08-11T05:06:55.895Z,5.30
2022-08-11T05:07:55.886Z,5.59
2022-08-11T05:08:55.869Z,5.69
2022-08-11T05:09:55.866Z,5.50
2022-08-11T05:10:55.849Z,5.59
2022-08-11T05:11:57.885Z,5.40
2022-08-11T05:12:55.832Z,5.59
2022-08-11T05:13:55.828Z,5.50
2022-08-11T05:14:55.809Z,5.30
2022-08-11T05:15:55.798Z,4.69
2022-08-11T05:16:55.788Z,4.59
2022-08-11T05:17:55.781Z,4.40
2022-08-11T05:18:55.769Z,4.19
2022-08-11T05:19:55.756Z,4.19
2022-08-11T05:20:55.746Z,4.00
2022-08-11T05:21:57.259Z,4.00
2022-08-11T05:22:55.726Z,4.00
2022-08-11T05:23:55.715Z,4.30
2022-08-11T05:24:55.705Z,4.09
2022-08-11T05:26:47.372Z,4.09
2022-08-11T05:26:55.687Z,4.30
2022-08-11T05:27:55.671Z,4.50
2022-08-11T05:28:55.667Z,4.50
2022-08-11T05:29:55.653Z,4.90
2022-08-11T05:30:55.700Z,4.30
2022-08-11T05:31:55.635Z,4.09
2022-08-11T05:33:00.934Z,4.00
2022-08-11T05:33:55.615Z,4.19
2022-08-11T05:34:55.605Z,4.19
2022-08-11T05:36:00.965Z,4.30
2022-08-11T05:37:17.186Z,4.50
2022-08-11T05:37:56.589Z,4.09
2022-08-11T05:38:55.563Z,3.70
2022-08-11T05:39:55.666Z,4.09
2022-08-11T05:41:00.037Z,4.40
2022-08-11T05:41:55.535Z,4.69
2022-08-11T05:42:55.522Z,4.69
2022-08-11T05:44:19.869Z,4.69
2022-08-11T05:44:56.526Z,4.19
2022-08-11T05:46:02.985Z,4.40
2022-08-11T05:46:56.500Z,4.09
2022-08-11T05:47:55.470Z,4.69
2022-08-11T05:48:55.476Z,4.40
2022-08-11T05:49:55.455Z,4.40
2022-08-11T05:50:55.441Z,4.30
2022-08-11T05:51:57.295Z,4.50
2022-08-11T05:52:56.674Z,4.50
2022-08-11T05:53:55.411Z,4.50
2022-08-11T05:54:55.404Z,4.50
2022-08-11T05:56:02.822Z,4.80
2022-08-11T05:56:56.402Z,4.50
2022-08-11T05:57:55.370Z,4.69
2022-08-11T05:58:55.360Z,5.00
2022-08-11T05:59:55.350Z,4.30
2022-08-11T06:00:55.338Z,5.00
2022-08-11T06:01:55.362Z,4.80
2022-08-11T06:02:55.558Z,4.50
2022-08-11T06:03:58.124Z,4.50
2022-08-11T06:04:55.300Z,4.40
2022-08-11T06:05:55.293Z,5.00
2022-08-11T06:06:55.282Z,4.80
2022-08-11T06:07:55.275Z,4.50
2022-08-11T06:08:55.259Z,5.09
2022-08-11T06:09:55.253Z,4.90
2022-08-11T06:10:55.242Z,5.09
2022-08-11T06:11:55.233Z,5.09
2022-08-11T06:12:55.221Z,5.40
2022-08-11T06:13:55.213Z,5.30
2022-08-11T06:14:55.211Z,5.30
2022-08-11T06:15:55.194Z,5.59
2022-08-11T06:16:55.180Z,5.00
2022-08-11T06:17:55.172Z,4.90
2022-08-11T06:18:55.161Z,5.09
2022-08-11T06:19:55.149Z,4.80
2022-08-11T06:20:56.163Z,4.59
2022-08-11T06:21:55.136Z,4.40
2022-08-11T06:22:55.137Z,4.40
2022-08-11T06:23:55.109Z,4.50
2022-08-11T06:24:55.098Z,4.40
2022-08-11T06:25:56.394Z,4.09
2022-08-11T06:27:11.952Z,4.50
2022-08-11T06:27:55.069Z,4.90
2022-08-11T06:28:55.055Z,4.80
2022-08-11T06:29:55.804Z,4.80
2022-08-11T06:30:55.040Z,5.50
2022-08-11T06:31:55.028Z,5.00
2022-08-11T06:32:55.015Z,5.30
2022-08-11T06:33:55.010Z,5.19
2022-08-11T06:34:54.993Z,5.19
2022-08-11T06:35:54.988Z,5.30
2022-08-11T06:36:54.977Z,5.59
2022-08-11T06:37:59.118Z,5.69
2022-08-11T06:38:54.953Z,5.90
2022-08-11T06:39:55.027Z,5.40
2022-08-11T06:40:54.935Z,5.59
2022-08-11T06:41:54.927Z,5.59
2022-08-11T06:42:54.911Z,5.40
2022-08-11T06:43:56.151Z,5.80
2022-08-11T06:44:54.893Z,5.80
2022-08-11T06:45:54.884Z,5.00
2022-08-11T06:46:54.875Z,4.80
2022-08-11T06:47:54.861Z,4.90
2022-08-11T06:48:54.853Z,4.59
2022-08-11T06:49:54.845Z,4.90
2022-08-11T06:50:54.831Z,5.00
2022-08-11T06:51:54.824Z,4.80
2022-08-11T06:52:54.814Z,4.69
2022-08-11T06:54:04.066Z,4.80
2022-08-11T06:54:55.813Z,4.40
2022-08-11T06:55:58.251Z,4.19
2022-08-11T06:57:12.453Z,4.90
2022-08-11T06:57:54.765Z,4.40
2022-08-11T06:58:54.754Z,4.00
2022-08-11T06:59:54.742Z,4.00
2022-08-11T07:00:54.735Z,4.00
2022-08-11T07:01:54.835Z,4.19
2022-08-11T07:02:54.714Z,4.30
2022-08-11T07:03:54.710Z,4.19
2022-08-11T07:04:54.694Z,4.19
2022-08-11T07:05:54.684Z,4.40
2022-08-11T07:06:54.672Z,4.59
2022-08-11T07:07:54.664Z,4.30
2022-08-11T07:08:54.653Z,4.19
2022-08-11T07:09:54.643Z,4.00
2022-08-11T07:10:54.636Z,4.50
2022-08-11T07:11:54.632Z,4.00
2022-08-11T07:12:54.613Z,4.09
2022-08-11T07:13:54.607Z,4.00
2022-08-11T07:15:00.261Z,3.79
2022-08-11T07:16:11.301Z,4.00
2022-08-11T07:16:55.596Z,3.79
2022-08-11T07:17:54.564Z,3.90
2022-08-11T07:18:54.556Z,3.70
2022-08-11T07:19:56.784Z,3.90
2022-08-11T07:20:58.602Z,3.59
2022-08-11T07:22:03.012Z,3.90
2022-08-11T07:22:55.533Z,3.79
2022-08-11T07:23:54.504Z,3.50
2022-08-11T07:24:59.854Z,3.79
2022-08-11T07:25:55.505Z,3.90
2022-08-11T07:26:54.473Z,4.00
2022-08-11T07:27:54.465Z,3.90
2022-08-11T07:28:54.456Z,3.90
2022-08-11T07:29:54.444Z,3.79
2022-08-11T07:30:54.440Z,4.09
2022-08-11T07:31:54.427Z,3.70
2022-08-11T07:32:54.415Z,4.00
2022-08-11T07:34:05.869Z,4.09
2022-08-11T07:34:54.399Z,4.09
2022-08-11T07:35:54.384Z,4.40
2022-08-11T07:36:54.380Z,4.00
2022-08-11T07:38:01.647Z,4.19
2022-08-11T07:38:55.378Z,3.59
2022-08-11T07:39:54.447Z,3.59
2022-08-11T07:40:54.337Z,3.90
2022-08-11T07:41:54.328Z,4.50
2022-08-11T07:42:54.320Z,3.70
2022-08-11T07:43:54.310Z,3.79
2022-08-11T07:44:54.301Z,3.90
2022-08-11T07:45:54.293Z,3.70
2022-08-11T07:46:54.280Z,3.90
2022-08-11T07:47:54.266Z,3.90
2022-08-11T07:48:54.256Z,3.70
2022-08-11T07:49:54.252Z,3.79
2022-08-11T07:50:56.201Z,3.79
2022-08-11T07:51:54.229Z,3.79
2022-08-11T07:52:54.219Z,3.59
2022-08-11T07:53:58.362Z,4.09
2022-08-11T07:54:55.223Z,4.00
2022-08-11T07:55:54.290Z,3.70
2022-08-11T07:57:09.036Z,3.70
2022-08-11T07:58:16.455Z,3.79
2022-08-11T07:58:57.621Z,3.79
2022-08-11T08:00:03.958Z,3.70
2022-08-11T08:00:55.156Z,3.79
2022-08-11T08:01:54.183Z,3.79
2022-08-11T08:02:54.120Z,3.90
2022-08-11T08:03:54.939Z,3.20
2022-08-11T08:04:54.099Z,3.70
2022-08-11T08:05:54.088Z,4.00
2022-08-11T08:06:54.083Z,3.90
2022-08-11T08:07:54.072Z,3.90
2022-08-11T08:08:54.061Z,3.90
2022-08-11T08:09:54.048Z,4.09
2022-08-11T08:10:54.041Z,3.79
2022-08-11T08:11:54.033Z,3.79
2022-08-11T08:12:54.025Z,3.70
2022-08-11T08:13:54.014Z,4.00
2022-08-11T08:14:54.004Z,3.90
2022-08-11T08:15:53.991Z,3.79
2022-08-11T08:16:53.981Z,3.90
2022-08-11T08:18:20.449Z,4.09
2022-08-11T08:18:54.986Z,3.90
2022-08-11T08:19:53.952Z,4.00
2022-08-11T08:20:53.943Z,3.79
2022-08-11T08:21:53.939Z,4.00
2022-08-11T08:22:55.353Z,4.09
2022-08-11T08:23:56.199Z,3.79
2022-08-11T08:24:53.902Z,3.70
2022-08-11T08:25:53.898Z,4.19
2022-08-11T08:26:53.886Z,3.79
2022-08-11T08:27:53.875Z,4.09
2022-08-11T08:28:53.875Z,4.19
2022-08-11T08:29:53.856Z,3.70
2022-08-11T08:30:53.843Z,3.70
2022-08-11T08:31:53.837Z,4.09
2022-08-11T08:32:53.824Z,3.90
2022-08-11T08:33:53.815Z,3.40
2022-08-11T08:34:53.810Z,3.59
2022-08-11T08:35:54.397Z,3.70
2022-08-11T08:36:53.784Z,3.40
2022-08-11T08:37:53.777Z,3.70
2022-08-11T08:38:53.765Z,3.70
2022-08-11T08:39:53.860Z,4.09
2022-08-11T08:40:55.906Z,4.00
2022-08-11T08:41:53.739Z,4.00
2022-08-11T08:42:53.732Z,4.40
2022-08-11T08:43:53.732Z,3.90
2022-08-11T08:44:53.710Z,3.59
2022-08-11T08:45:53.706Z,3.40
2022-08-11T08:46:53.692Z,3.59
2022-08-11T08:47:53.730Z,3.20
2022-08-11T08:48:53.847Z,3.20
2022-08-11T08:49:53.665Z,3.40
2022-08-11T08:50:53.657Z,3.09
2022-08-11T08:52:00.875Z,3.09
2022-08-11T08:52:54.662Z,3.40
2022-08-11T08:53:56.356Z,3.20
2022-08-11T08:54:53.620Z,3.50
2022-08-11T08:55:53.611Z,3.09
2022-08-11T08:56:53.603Z,3.29
2022-08-11T08:57:53.592Z,3.59
2022-08-11T08:58:53.580Z,3.09
2022-08-11T08:59:53.572Z,3.50
2022-08-11T09:00:53.635Z,3.59
2022-08-11T09:01:53.551Z,3.09
2022-08-11T09:02:53.551Z,3.20
2022-08-11T09:04:07.020Z,3.09
2022-08-11T09:04:53.525Z,3.50
2022-08-11T09:05:53.513Z,3.09
2022-08-11T09:06:53.505Z,3.09
2022-08-11T09:07:53.601Z,3.20
2022-08-11T09:08:53.485Z,3.00
2022-08-11T09:09:53.475Z,2.79
2022-08-11T09:10:53.471Z,3.20
2022-08-11T09:11:53.484Z,2.90
2022-08-11T09:12:53.462Z,3.20
2022-08-11T09:14:05.639Z,3.20
2022-08-11T09:14:53.431Z,3.09
2022-08-11T09:15:56.403Z,2.90
2022-08-11T09:16:53.411Z,3.09
2022-08-11T09:17:53.403Z,2.90
2022-08-11T09:18:53.391Z,3.00
2022-08-11T09:19:56.479Z,3.20
2022-08-11T09:20:53.379Z,3.20
2022-08-11T09:21:53.368Z,3.20
2022-08-11T09:23:29.541Z,3.00
2022-08-11T09:24:15.002Z,3.09
2022-08-11T09:24:54.372Z,3.09
2022-08-11T09:25:53.332Z,3.29
2022-08-11T09:26:53.323Z,3.09
2022-08-11T09:27:53.312Z,3.09
2022-08-11T09:28:53.301Z,3.40
2022-08-11T09:29:53.295Z,3.20
2022-08-11T09:30:53.285Z,3.40
2022-08-11T09:31:53.277Z,2.90
2022-08-11T09:32:53.267Z,3.20
2022-08-11T09:33:53.256Z,3.59
2022-08-11T09:34:54.229Z,3.20
2022-08-11T09:35:53.239Z,3.40
2022-08-11T09:36:53.232Z,3.09
2022-08-11T09:37:55.350Z,3.20
2022-08-11T09:38:53.215Z,2.90
2022-08-11T09:39:53.239Z,3.00
2022-08-11T09:42:01.068Z,3.00
2022-08-11T09:42:23.616Z,3.09
2022-08-11T09:42:54.196Z,3.00
2022-08-11T09:43:53.174Z,3.09
2022-08-11T09:44:53.818Z,3.09
2022-08-11T09:45:53.147Z,3.00
2022-08-11T09:46:53.142Z,3.00
2022-08-11T09:47:53.130Z,2.90
2022-08-11T09:48:53.123Z,3.09
2022-08-11T09:49:53.122Z,3.20
2022-08-11T09:50:53.104Z,2.90
2022-08-11T09:52:02.040Z,3.20
2022-08-11T09:53:35.222Z,3.20
2022-08-11T09:54:03.631Z,3.00
2022-08-11T09:54:53.067Z,3.09
2022-08-11T09:55:53.059Z,3.09
2022-08-11T09:56:53.055Z,2.90
2022-08-11T09:57:55.151Z,2.79
2022-08-11T09:58:53.035Z,3.00
2022-08-11T09:59:53.027Z,3.00
2022-08-11T10:00:54.064Z,2.79
2022-08-11T10:01:53.009Z,3.29
2022-08-11T10:02:53.258Z,3.00
2022-08-11T10:03:52.991Z,3.00
2022-08-11T10:04:52.983Z,3.20
2022-08-11T10:05:52.974Z,3.09
2022-08-11T10:06:54.151Z,3.09
2022-08-11T10:07:52.954Z,3.20
2022-08-11T10:08:52.945Z,3.40
2022-08-11T10:09:52.936Z,3.00
2022-08-11T10:10:52.926Z,3.20
2022-08-11T10:11:58.103Z,3.00
2022-08-11T10:12:52.930Z,3.00
2022-08-11T10:14:33.202Z,2.90
2022-08-11T10:14:53.913Z,2.90
2022-08-11T10:16:02.370Z,2.79
2022-08-11T10:16:53.901Z,3.09
2022-08-11T10:17:52.864Z,3.00
2022-08-11T10:18:53.502Z,3.00
2022-08-11T10:20:04.281Z,3.00
2022-08-11T10:20:52.842Z,3.00
2022-08-11T10:21:52.835Z,3.00
2022-08-11T10:22:52.827Z,3.29
2022-08-11T10:24:01.122Z,2.90
2022-08-11T10:24:53.861Z,3.00
2022-08-11T10:25:52.799Z,3.09
2022-08-11T10:26:53.661Z,3.00
2022-08-11T10:28:30.371Z,2.90
2022-08-11T10:29:12.011Z,3.09
2022-08-11T10:29:53.781Z,2.90
2022-08-11T10:30:52.756Z,3.00
2022-08-11T10:31:57.987Z,3.00
2022-08-11T10:32:58.832Z,3.00
2022-08-11T10:33:59.219Z,2.79
2022-08-11T10:34:54.644Z,3.29
2022-08-11T10:35:52.711Z,3.00
2022-08-11T10:36:52.706Z,2.79
2022-08-11T10:38:08.719Z,2.79
2022-08-11T10:38:53.707Z,2.59
2022-08-11T10:39:52.732Z,2.79
2022-08-11T10:40:52.668Z,2.70
2022-08-11T10:42:08.719Z,2.90
2022-08-11T10:42:57.830Z,2.79
2022-08-11T10:44:01.689Z,2.79
2022-08-11T10:44:53.657Z,3.09
2022-08-11T10:45:52.630Z,2.90
2022-08-11T10:46:52.615Z,3.00
2022-08-11T10:47:52.609Z,3.09
2022-08-11T10:48:52.599Z,3.09
2022-08-11T10:49:52.587Z,3.29
2022-08-11T10:50:52.580Z,3.00
2022-08-11T10:51:53.858Z,3.00
2022-08-11T10:52:52.564Z,3.00
2022-08-11T10:53:52.552Z,3.29
2022-08-11T10:54:52.549Z,3.29
2022-08-11T10:55:52.593Z,2.90
2022-08-11T10:56:52.527Z,2.90
2022-08-11T10:58:04.920Z,3.09
2022-08-11T10:58:53.530Z,2.90
2022-08-11T10:59:52.502Z,2.90
2022-08-11T11:00:52.517Z,2.90
2022-08-11T11:01:52.482Z,2.79
2022-08-11T11:03:16.734Z,2.90
2022-08-11T11:03:53.485Z,2.90
2022-08-11T11:04:52.457Z,2.90
2022-08-11T11:06:28.902Z,3.00
2022-08-11T11:06:53.461Z,2.90
2022-08-11T11:07:52.432Z,2.90
2022-08-11T11:08:52.569Z,2.90
2022-08-11T11:09:52.415Z,2.70
2022-08-11T11:10:52.407Z,2.79
2022-08-11T11:11:52.398Z,2.79
2022-08-11T11:12:52.388Z,2.70
2022-08-11T11:13:53.274Z,2.79
2022-08-11T11:14:58.129Z,2.79
2022-08-11T11:15:53.386Z,2.70
2022-08-11T11:16:52.357Z,3.00
2022-08-11T11:17:52.344Z,2.59
2022-08-11T11:19:00.561Z,3.00
2022-08-11T11:19:53.657Z,2.79
2022-08-11T11:20:52.391Z,3.00
2022-08-11T11:21:52.313Z,3.00
2022-08-11T11:22:52.302Z,2.79
2022-08-11T11:23:52.295Z,3.00
2022-08-11T11:24:52.288Z,2.90
2022-08-11T11:25:56.785Z,2.79
2022-08-11T11:26:52.266Z,3.50
2022-08-11T11:27:52.259Z,2.90
2022-08-11T11:28:52.251Z,2.79
2022-08-11T11:29:52.243Z,2.70
2022-08-11T11:30:52.235Z,2.59
2022-08-11T11:31:52.227Z,2.90
2022-08-11T11:32:52.216Z,2.79
2022-08-11T11:34:12.384Z,2.90
2022-08-11T11:34:54.098Z,2.70
2022-08-11T11:35:52.194Z,2.79
2022-08-11T11:36:52.185Z,2.90
2022-08-11T11:38:04.595Z,2.79
2022-08-11T11:38:53.192Z,2.79
2022-08-11T11:39:52.266Z,2.90
2022-08-11T11:40:52.148Z,2.79
2022-08-11T11:41:52.146Z,3.09
2022-08-11T11:42:52.134Z,3.09
2022-08-11T11:43:52.123Z,2.90
2022-08-11T11:44:55.619Z,3.00
2022-08-11T11:45:52.110Z,2.59
2022-08-11T11:46:52.096Z,2.70
2022-08-11T11:47:52.087Z,2.59
2022-08-11T11:48:52.080Z,3.00
2022-08-11T11:49:52.070Z,2.79
2022-08-11T11:50:53.732Z,2.70
2022-08-11T11:51:52.059Z,2.79
2022-08-11T11:52:52.043Z,3.00
2022-08-11T11:53:52.033Z,2.59
2022-08-11T11:54:52.033Z,2.90
2022-08-11T11:55:52.019Z,2.79
2022-08-11T11:56:52.005Z,2.79
2022-08-11T11:57:58.948Z,3.00
2022-08-11T11:58:53.011Z,2.70
2022-08-11T11:59:51.983Z,3.09
2022-08-11T12:00:51.975Z,3.00
2022-08-11T12:01:52.694Z,2.90
2022-08-11T12:02:51.994Z,2.79
2022-08-11T12:03:51.952Z,2.90
2022-08-11T12:04:51.939Z,2.90
2022-08-11T12:05:51.932Z,2.79
2022-08-11T12:06:51.925Z,3.40
2022-08-11T12:07:56.851Z,2.79
2022-08-11T12:08:52.923Z,2.70
2022-08-11T12:09:51.898Z,2.79
2022-08-11T12:10:51.889Z,2.70
2022-08-11T12:11:51.881Z,3.00
2022-08-11T12:12:51.873Z,2.79
2022-08-11T12:13:51.869Z,2.90
2022-08-11T12:14:51.852Z,3.00
2022-08-11T12:16:31.010Z,3.00
2022-08-11T12:16:52.864Z,2.79
2022-08-11T12:17:52.886Z,2.70
2022-08-11T12:18:51.894Z,2.59
2022-08-11T12:19:51.813Z,2.90
2022-08-11T12:20:51.809Z,3.00
2022-08-11T12:21:51.798Z,2.70
2022-08-11T12:22:52.810Z,2.70
2022-08-11T12:23:51.781Z,2.59
2022-08-11T12:24:51.775Z,2.70
2022-08-11T12:26:10.079Z,2.59
2022-08-11T12:27:15.137Z,2.79
2022-08-11T12:27:52.768Z,2.59
2022-08-11T12:28:51.739Z,2.59
2022-08-11T12:29:55.488Z,2.59
2022-08-11T12:30:54.141Z,2.59
2022-08-11T12:32:25.768Z,2.59
2022-08-11T12:32:51.710Z,2.40
2022-08-11T12:33:51.702Z,2.59
2022-08-11T12:35:22.877Z,2.70
2022-08-11T12:36:00.630Z,2.70
2022-08-11T12:36:52.699Z,2.50
2022-08-11T12:37:51.668Z,2.50
2022-08-11T12:38:51.782Z,2.40
2022-08-11T12:45:12.134Z,2.50
2022-08-11T12:45:22.109Z,2.70
2022-08-11T12:47:08.087Z,2.70
2022-08-11T12:47:16.386Z,2.59
2022-08-11T12:48:57.524Z,2.59
2022-08-11T12:49:17.389Z,2.59
2022-08-11T12:50:23.079Z,2.59
2022-08-11T12:51:17.369Z,2.70
2022-08-11T12:52:16.347Z,2.70
2022-08-11T12:53:16.333Z,2.50
2022-08-11T12:54:16.324Z,2.70
2022-08-11T12:55:16.317Z,2.90
2022-08-11T12:56:16.310Z,2.90
2022-08-11T12:57:16.302Z,2.70
2022-08-11T12:58:17.321Z,2.59
2022-08-11T12:59:16.288Z,2.59
2022-08-11T13:00:16.279Z,2.59
2022-08-11T13:01:16.373Z,2.70
2022-08-11T13:18:18.758Z,2.59
2022-08-11T13:19:49.628Z,3.09
2022-08-11T13:20:20.160Z,3.00
2022-08-11T13:22:12.243Z,2.70
2022-08-11T13:22:20.134Z,2.79
2022-08-11T13:51:36.807Z,2.79
2022-08-11T13:51:38.207Z,2.70
2022-08-11T14:15:48.128Z,2.70
2022-08-11T14:16:49.526Z,2.59
2022-08-11T14:57:57.297Z,2.79
2022-08-11T14:57:58.974Z,2.79
2022-08-11T15:03:18.835Z,2.79
2022-08-11T15:03:27.979Z,2.70
2022-08-11T15:04:35.326Z,2.59
2022-08-11T15:05:21.250Z,2.59
2022-08-11T15:06:20.222Z,2.50
2022-08-11T15:07:20.213Z,2.90
2022-08-11T15:08:20.205Z,2.70
2022-08-11T15:09:20.201Z,2.79
2022-08-11T15:50:27.552Z,2.90
2022-08-11T15:50:28.964Z,3.00
2022-08-11T15:52:20.904Z,2.90
2022-08-11T15:52:28.950Z,2.79
2022-08-11T15:59:41.722Z,2.50
2022-08-11T15:59:41.871Z,2.79
2022-08-11T16:00:37.510Z,2.70
2022-08-11T16:09:29.057Z,2.70
2022-08-11T16:09:47.098Z,2.90
2022-08-11T16:10:35.930Z,2.90
2022-08-11T16:13:47.491Z,3.09
2022-08-11T16:13:48.866Z,3.00
2022-08-11T16:14:48.860Z,3.09
2022-08-11T16:15:48.850Z,2.90
2022-08-11T16:16:48.846Z,3.09
2022-08-11T16:17:48.834Z,3.09
2022-08-11T16:18:51.750Z,2.79
2022-08-11T16:19:48.814Z,3.00
2022-08-11T16:20:48.808Z,3.09
2022-08-11T16:21:48.798Z,3.09
2022-08-11T16:23:02.230Z,2.90
2022-08-11T16:23:48.784Z,3.00
2022-08-11T16:27:01.508Z,3.00
2022-08-11T16:27:03.581Z,2.90
2022-08-11T16:27:11.493Z,3.09
2022-08-11T16:27:49.772Z,2.90
2022-08-11T16:28:48.894Z,2.79
2022-08-11T16:29:48.733Z,2.90
2022-08-11T16:30:48.724Z,3.29
2022-08-11T16:31:48.715Z,3.09
2022-08-11T16:32:48.712Z,2.90
2022-08-11T16:33:51.633Z,2.70
2022-08-11T16:34:48.689Z,2.90
2022-08-11T16:35:48.683Z,3.09
2022-08-11T16:36:48.673Z,2.90
2022-08-11T16:37:48.665Z,2.90
2022-08-11T16:38:48.657Z,3.09
2022-08-11T16:39:50.715Z,3.00
2022-08-11T16:40:48.638Z,3.00
2022-08-11T16:41:48.631Z,2.70
2022-08-11T16:43:08.810Z,3.09
2022-08-11T16:43:49.631Z,3.29
2022-08-11T16:44:48.604Z,3.00
2022-08-11T16:45:48.592Z,3.09
2022-08-11T16:46:48.621Z,2.59
2022-08-11T16:48:02.785Z,3.00
2022-08-11T16:48:48.574Z,2.90
2022-08-11T16:49:52.461Z,2.90
2022-08-11T16:50:48.551Z,2.90
2022-08-11T16:51:48.540Z,3.00
2022-08-11T16:52:48.532Z,2.90
2022-08-11T16:54:04.427Z,3.00
2022-08-11T16:54:49.536Z,2.70
2022-08-11T16:55:52.465Z,3.40
2022-08-11T16:56:48.498Z,3.00
2022-08-11T16:57:48.492Z,2.90
2022-08-11T16:58:48.483Z,2.90
2022-08-11T16:59:48.469Z,3.00
2022-08-11T17:00:48.518Z,3.09
2022-08-11T17:01:48.451Z,2.90
2022-08-11T17:02:48.442Z,3.09
2022-08-11T17:03:48.436Z,3.29
2022-08-11T17:04:48.426Z,3.00
2022-08-11T17:05:54.121Z,2.90
2022-08-11T17:06:48.413Z,3.00
2022-08-11T17:07:48.403Z,2.90
2022-08-11T17:08:56.568Z,2.90
2022-08-11T17:09:49.404Z,3.09
2022-08-11T17:10:52.378Z,3.09
2022-08-11T17:11:49.389Z,3.00
2022-08-11T17:12:48.361Z,3.09
2022-08-11T17:13:48.350Z,3.00
2022-08-11T17:14:48.344Z,3.20
2022-08-11T17:15:48.330Z,3.20
2022-08-11T17:16:48.322Z,3.20
2022-08-11T17:17:48.314Z,2.90
2022-08-11T17:18:48.305Z,3.09
2022-08-11T17:20:40.540Z,3.09
2022-08-11T17:20:49.310Z,3.00
2022-08-11T17:21:48.279Z,3.40
2022-08-11T17:22:48.270Z,3.00
2022-08-11T17:23:48.263Z,3.09
2022-08-11T17:24:48.250Z,3.29
2022-08-11T17:26:00.404Z,3.29
2022-08-11T17:26:48.235Z,3.09
2022-08-11T17:27:48.222Z,3.20
2022-08-11T17:28:48.214Z,3.00
2022-08-11T17:29:54.679Z,3.40
2022-08-11T17:30:48.199Z,3.09
2022-08-11T17:31:48.189Z,3.00
2022-08-11T17:32:56.914Z,3.20
2022-08-11T17:33:49.239Z,3.29
2022-08-11T17:34:48.162Z,3.20
2022-08-11T17:35:48.152Z,3.00
2022-08-11T17:36:48.142Z,3.29
2022-08-11T17:37:48.145Z,3.40